Time;durP1;ratioP1;P1;durP2;ratioP2;P2;SDS_P1;SDS_P2;PMS_P1;PMS_P2;Temp;Humidity;BMP_temperature;BMP_pressure;BME280_temperature;BME280_humidity;BME280_pressure;Samples;Min_cycle;Max_cycle;Signal;HPM_P1;HPM_P2
2023/12/23 00:02:10;;;;;;;24.75;3.17;;;;;;;;;;4919967;29;20041;-73
2023/12/23 00:04:36;;;;;;;18.52;2.92;;;;;;;;;;4930835;29;20126;-73
2023/12/23 00:07:02;;;;;;;16.02;2.47;;;;;;;;;;4937040;29;20040;-73
2023/12/23 00:09:28;;;;;;;18.88;2.90;;;;;;;;;;4936548;29;20046;-73
2023/12/23 00:11:55;;;;;;;14.00;2.60;;;;;;;;;;4936378;29;20056;-73
2023/12/23 00:14:21;;;;;;;21.23;3.20;;;;;;;;;;4902698;29;20055;-74
2023/12/23 00:16:47;;;;;;;13.52;2.78;;;;;;;;;;4917608;29;20488;-73
2023/12/23 00:19:13;;;;;;;15.30;2.45;;;;;;;;;;4890943;29;20044;-73
2023/12/23 00:21:39;;;;;;;16.98;2.85;;;;;;;;;;4936732;29;20059;-73
2023/12/23 00:24:05;;;;;;;17.75;3.63;;;;;;;;;;4936300;29;20040;-73
2023/12/23 00:26:31;;;;;;;19.90;2.70;;;;;;;;;;4920911;29;20070;-73
2023/12/23 00:28:57;;;;;;;11.60;2.25;;;;;;;;;;4920334;29;20035;-73
2023/12/23 00:31:23;;;;;;;16.95;2.90;;;;;;;;;;4921104;29;20044;-73
2023/12/23 00:33:49;;;;;;;12.18;2.67;;;;;;;;;;4919624;29;20401;-73
2023/12/23 00:36:16;;;;;;;18.90;2.78;;;;;;;;;;4926474;29;20047;-73
2023/12/23 00:38:42;;;;;;;13.73;2.15;;;;;;;;;;4917699;29;20051;-73
2023/12/23 00:41:08;;;;;;;13.32;2.63;;;;;;;;;;4917820;29;20040;-73
2023/12/23 00:43:34;;;;;;;16.88;2.63;;;;;;;;;;4918465;29;20092;-73
2023/12/23 00:46:00;;;;;;;15.82;2.60;;;;;;;;;;4920134;29;20499;-73
2023/12/23 00:48:26;;;;;;;16.45;3.13;;;;;;;;;;4904578;29;20050;-74
2023/12/23 00:50:52;;;;;;;12.45;2.50;;;;;;;;;;4935745;29;20044;-74
2023/12/23 00:53:18;;;;;;;12.93;2.22;;;;;;;;;;4917653;29;20075;-73
2023/12/23 00:55:44;;;;;;;15.02;2.92;;;;;;;;;;4925065;29;20417;-73
2023/12/23 00:58:10;;;;;;;27.15;3.75;;;;;;;;;;4936248;29;20512;-73
2023/12/23 01:00:38;;;;;;;11.23;2.35;;;;;;;;;;4919886;29;20048;-74
2023/12/23 01:03:04;;;;;;;9.93;2.00;;;;;;;;;;4922737;29;20051;-73
2023/12/23 01:05:30;;;;;;;12.70;1.95;;;;;;;;;;4920553;29;20040;-73
2023/12/23 01:07:56;;;;;;;23.75;3.15;;;;;;;;;;4934348;29;20044;-74
2023/12/23 01:10:25;;;;;;;12.25;2.00;;;;;;;;;;4919817;29;20071;-74
2023/12/23 01:12:51;;;;;;;12.13;2.10;;;;;;;;;;4927555;29;20115;-74
2023/12/23 01:15:17;;;;;;;12.50;2.10;;;;;;;;;;4919889;29;20126;-74
2023/12/23 01:17:43;;;;;;;11.10;2.15;;;;;;;;;;4921838;29;20378;-74
2023/12/23 01:20:09;;;;;;;14.77;2.40;;;;;;;;;;4901137;29;20048;-73
2023/12/23 01:22:35;;;;;;;9.07;2.00;;;;;;;;;;4932817;29;20515;-74
2023/12/23 01:25:02;;;;;;;15.15;2.17;;;;;;;;;;4935906;29;20039;-73
2023/12/23 01:27:28;;;;;;;10.18;1.95;;;;;;;;;;4934731;29;20403;-74
2023/12/23 01:29:54;;;;;;;12.73;1.95;;;;;;;;;;4918713;29;20039;-74
2023/12/23 01:32:21;;;;;;;14.40;1.90;;;;;;;;;;4919414;29;20040;-73
2023/12/23 01:34:47;;;;;;;13.32;1.90;;;;;;;;;;4918137;29;20388;-73
2023/12/23 01:37:13;;;;;;;10.65;2.00;;;;;;;;;;4914872;29;20138;-73
2023/12/23 01:39:39;;;;;;;16.13;3.35;;;;;;;;;;4916528;29;20047;-73
2023/12/23 01:42:05;;;;;;;15.68;2.80;;;;;;;;;;4909272;29;20058;-73
2023/12/23 01:44:32;;;;;;;8.60;1.50;;;;;;;;;;4919259;29;20075;-73
2023/12/23 01:46:59;;;;;;;11.07;1.80;;;;;;;;;;4917466;29;20374;-73
2023/12/23 01:49:25;;;;;;;7.82;1.70;;;;;;;;;;4919627;29;20046;-74
2023/12/23 01:51:53;;;;;;;13.18;1.63;;;;;;;;;;4919835;29;20035;-74
2023/12/23 01:54:21;;;;;;;7.53;1.40;;;;;;;;;;4934107;29;20043;-74
2023/12/23 01:56:48;;;;;;;11.80;1.98;;;;;;;;;;4933066;29;20127;-74
2023/12/23 01:59:15;;;;;;;9.50;1.58;;;;;;;;;;4935048;29;20126;-73
2023/12/23 02:01:41;;;;;;;9.50;1.83;;;;;;;;;;4934665;29;20047;-74
2023/12/23 02:04:07;;;;;;;6.78;1.85;;;;;;;;;;4933980;29;20047;-74
2023/12/23 02:06:34;;;;;;;12.35;2.40;;;;;;;;;;4925615;29;20392;-74
2023/12/23 02:09:01;;;;;;;19.75;2.35;;;;;;;;;;4931311;29;20051;-73
2023/12/23 02:11:43;;;;;;;8.05;1.60;;;;;;;;;;4932982;29;20039;-73
2023/12/23 02:14:16;;;;;;;4.00;1.38;;;;;;;;;;4934855;29;20043;-74
2023/12/23 02:16:42;;;;;;;7.47;1.83;;;;;;;;;;4937791;29;20079;-73
2023/12/23 02:19:08;;;;;;;10.70;1.60;;;;;;;;;;4923067;29;20079;-74
2023/12/23 02:21:34;;;;;;;10.13;2.22;;;;;;;;;;4903457;29;20051;-74
2023/12/23 02:24:00;;;;;;;3.85;1.40;;;;;;;;;;4899622;29;20079;-74
2023/12/23 02:26:27;;;;;;;5.35;1.38;;;;;;;;;;4936170;29;20081;-74
2023/12/23 02:28:54;;;;;;;9.00;1.35;;;;;;;;;;4935589;29;20054;-74
2023/12/23 02:31:20;;;;;;;8.25;1.90;;;;;;;;;;4936254;29;20035;-74
2023/12/23 02:33:50;;;;;;;6.20;1.42;;;;;;;;;;4921411;29;20517;-73
2023/12/23 02:36:20;;;;;;;8.50;1.60;;;;;;;;;;4923126;29;20400;-73
2023/12/23 02:38:47;;;;;;;8.93;1.73;;;;;;;;;;4909231;29;20051;-73
2023/12/23 02:41:13;;;;;;;8.63;1.65;;;;;;;;;;4916230;29;20051;-73
2023/12/23 02:43:39;;;;;;;7.95;1.95;;;;;;;;;;4903715;29;20035;-73
2023/12/23 02:46:05;;;;;;;7.28;1.45;;;;;;;;;;4891474;29;20110;-73
2023/12/23 02:48:31;;;;;;;6.25;1.67;;;;;;;;;;4919381;29;20047;-74
2023/12/23 02:50:57;;;;;;;11.50;1.85;;;;;;;;;;4920380;29;20054;-73
2023/12/23 02:53:23;;;;;;;11.32;1.50;;;;;;;;;;4919952;29;20479;-73
2023/12/23 02:55:49;;;;;;;7.85;1.52;;;;;;;;;;4904025;29;20126;-73
2023/12/23 02:58:16;;;;;;;9.30;1.75;;;;;;;;;;4937300;29;20050;-73
2023/12/23 03:00:42;;;;;;;7.97;1.67;;;;;;;;;;4937309;29;20050;-73
2023/12/23 03:03:08;;;;;;;7.03;1.33;;;;;;;;;;4921036;29;20075;-73
2023/12/23 03:05:34;;;;;;;9.10;1.60;;;;;;;;;;4904036;29;20129;-73
2023/12/23 03:08:00;;;;;;;11.05;1.77;;;;;;;;;;4930820;29;20043;-73
2023/12/23 03:10:26;;;;;;;10.57;1.60;;;;;;;;;;4935680;29;20046;-73
2023/12/23 03:12:52;;;;;;;5.13;1.33;;;;;;;;;;4935228;29;20081;-73
2023/12/23 03:15:18;;;;;;;11.90;1.63;;;;;;;;;;4905385;29;20035;-74
2023/12/23 03:17:44;;;;;;;8.18;1.50;;;;;;;;;;4919504;29;20046;-73
2023/12/23 03:20:10;;;;;;;6.43;2.13;;;;;;;;;;4935660;29;20047;-74
2023/12/23 03:22:37;;;;;;;8.40;1.80;;;;;;;;;;4920720;29;20047;-73
2023/12/23 03:25:03;;;;;;;11.80;1.60;;;;;;;;;;4917629;29;20043;-73
2023/12/23 03:27:29;;;;;;;11.18;1.80;;;;;;;;;;4936800;29;20044;-73
2023/12/23 03:29:55;;;;;;;6.40;1.67;;;;;;;;;;4935462;29;20476;-74
2023/12/23 03:32:21;;;;;;;7.35;1.95;;;;;;;;;;4921135;28;20516;-74
2023/12/23 03:34:47;;;;;;;8.10;1.70;;;;;;;;;;4935581;29;20123;-74
2023/12/23 03:37:13;;;;;;;8.23;2.20;;;;;;;;;;4905898;29;20078;-74
2023/12/23 03:39:39;;;;;;;9.15;1.73;;;;;;;;;;4935429;29;20043;-73
2023/12/23 03:42:06;;;;;;;6.13;2.10;;;;;;;;;;4933773;29;20043;-73
2023/12/23 03:44:32;;;;;;;8.98;1.75;;;;;;;;;;4932763;29;20044;-74
2023/12/23 03:46:58;;;;;;;8.35;2.00;;;;;;;;;;4917976;29;20095;-73
2023/12/23 03:49:24;;;;;;;8.05;1.70;;;;;;;;;;4918085;29;20050;-73
2023/12/23 03:51:50;;;;;;;4.40;1.35;;;;;;;;;;4918944;29;20047;-74
2023/12/23 03:54:16;;;;;;;7.03;1.50;;;;;;;;;;4919895;29;20043;-74
2023/12/23 03:56:42;;;;;;;9.18;1.60;;;;;;;;;;4890254;29;20082;-73
2023/12/23 03:59:08;;;;;;;7.60;1.50;;;;;;;;;;4930752;28;20172;-74
2023/12/23 04:01:34;;;;;;;3.95;1.58;;;;;;;;;;4940114;29;20050;-73
2023/12/23 04:04:00;;;;;;;6.40;1.65;;;;;;;;;;4931203;29;20043;-74
2023/12/23 04:06:27;;;;;;;5.15;1.40;;;;;;;;;;4940151;29;20470;-74
2023/12/23 04:08:53;;;;;;;5.57;1.67;;;;;;;;;;4939656;29;20078;-74
2023/12/23 04:11:20;;;;;;;6.90;2.05;;;;;;;;;;4940230;29;20459;-73
2023/12/23 04:13:46;;;;;;;8.23;2.20;;;;;;;;;;4927630;29;20063;-74
2023/12/23 04:16:12;;;;;;;4.07;1.40;;;;;;;;;;4905445;29;20396;-73
2023/12/23 04:18:38;;;;;;;4.10;1.42;;;;;;;;;;4906215;29;20130;-73
2023/12/23 04:21:08;;;;;;;7.35;2.10;;;;;;;;;;4920851;29;20047;-73
2023/12/23 04:23:34;;;;;;;3.10;1.48;;;;;;;;;;4920691;29;20048;-77
2023/12/23 04:26:00;;;;;;;3.45;1.30;;;;;;;;;;4938690;29;20373;-77
2023/12/23 04:28:26;;;;;;;2.47;1.40;;;;;;;;;;4939952;29;20097;-77
2023/12/23 04:30:54;;;;;;;2.65;1.70;;;;;;;;;;4939016;29;20042;-77
2023/12/23 04:33:21;;;;;;;4.18;1.48;;;;;;;;;;4939650;29;20051;-77
2023/12/23 04:35:47;;;;;;;2.22;1.40;;;;;;;;;;4907556;29;20125;-78
2023/12/23 04:38:14;;;;;;;1.60;1.20;;;;;;;;;;4933630;29;20039;-78
2023/12/23 04:40:40;;;;;;;3.60;1.40;;;;;;;;;;4916200;29;20114;-78
2023/12/23 04:43:06;;;;;;;2.75;1.13;;;;;;;;;;4926183;29;20050;-77
2023/12/23 04:45:32;;;;;;;1.45;1.23;;;;;;;;;;4918306;29;20094;-78
2023/12/23 04:47:59;;;;;;;1.10;1.00;;;;;;;;;;4939352;29;20511;-77
2023/12/23 04:50:25;;;;;;;0.77;0.77;;;;;;;;;;4899686;29;20086;-77
2023/12/23 04:52:51;;;;;;;1.80;0.98;;;;;;;;;;4896171;29;20043;-77
2023/12/23 04:55:19;;;;;;;1.05;1.00;;;;;;;;;;4930210;29;20054;-77
2023/12/23 04:57:45;;;;;;;1.95;1.10;;;;;;;;;;4889049;29;20039;-78
2023/12/23 05:00:11;;;;;;;1.00;1.00;;;;;;;;;;4923735;29;20094;-78
2023/12/23 05:02:38;;;;;;;1.10;0.90;;;;;;;;;;4923416;29;20047;-77
2023/12/23 05:05:04;;;;;;;0.98;0.75;;;;;;;;;;4937693;29;20050;-77
2023/12/23 05:07:30;;;;;;;0.80;0.80;;;;;;;;;;4939171;29;20042;-78
2023/12/23 05:09:56;;;;;;;1.45;1.05;;;;;;;;;;4939035;29;20079;-77
2023/12/23 05:12:22;;;;;;;0.90;0.90;;;;;;;;;;4938103;29;20500;-77
2023/12/23 05:14:48;;;;;;;1.10;1.00;;;;;;;;;;4899089;29;20047;-78
2023/12/23 05:17:14;;;;;;;1.00;0.90;;;;;;;;;;4937421;29;20039;-77
2023/12/23 05:19:41;;;;;;;0.93;0.93;;;;;;;;;;4907261;29;20480;-77
2023/12/23 05:22:07;;;;;;;0.82;0.82;;;;;;;;;;4894740;29;20055;-78
2023/12/23 05:24:33;;;;;;;0.90;0.90;;;;;;;;;;4937978;29;20118;-73
2023/12/23 05:26:59;;;;;;;1.15;0.90;;;;;;;;;;4931645;28;20047;-73
2023/12/23 05:29:25;;;;;;;0.93;0.80;;;;;;;;;;4932095;29;20059;-73
2023/12/23 05:31:52;;;;;;;0.80;0.80;;;;;;;;;;4914170;29;20039;-73
2023/12/23 05:34:18;;;;;;;1.00;1.00;;;;;;;;;;4937116;29;20035;-73
2023/12/23 05:36:44;;;;;;;1.30;0.93;;;;;;;;;;4934439;29;20057;-74
2023/12/23 05:39:11;;;;;;;0.90;0.90;;;;;;;;;;4934697;29;20047;-74
2023/12/23 05:41:37;;;;;;;0.90;0.90;;;;;;;;;;4938452;28;20047;-74
2023/12/23 05:44:03;;;;;;;1.10;1.10;;;;;;;;;;4926119;29;20067;-78
2023/12/23 05:46:29;;;;;;;1.48;0.82;;;;;;;;;;4922383;29;20093;-78
2023/12/23 05:48:55;;;;;;;2.17;1.00;;;;;;;;;;4934961;29;20499;-77
2023/12/23 05:51:21;;;;;;;1.48;0.90;;;;;;;;;;4954884;29;20400;-78
2023/12/23 05:53:47;;;;;;;1.50;0.93;;;;;;;;;;4938223;29;20491;-78
2023/12/23 05:56:14;;;;;;;0.77;0.77;;;;;;;;;;4922274;28;20046;-78
2023/12/23 05:58:40;;;;;;;0.80;0.75;;;;;;;;;;4919353;29;20069;-77
2023/12/23 06:01:06;;;;;;;1.33;0.80;;;;;;;;;;4955133;28;20047;-77
2023/12/23 06:03:32;;;;;;;1.00;0.90;;;;;;;;;;4905834;29;20070;-77
2023/12/23 06:05:58;;;;;;;3.63;1.20;;;;;;;;;;4922437;29;20050;-77
2023/12/23 06:08:24;;;;;;;5.38;1.40;;;;;;;;;;4925273;29;20043;-77
2023/12/23 06:10:50;;;;;;;6.60;1.45;;;;;;;;;;4887722;29;20046;-78
2023/12/23 06:13:16;;;;;;;1.80;1.30;;;;;;;;;;4899658;29;20423;-77
2023/12/23 06:15:43;;;;;;;4.22;1.08;;;;;;;;;;4938195;28;20039;-77
2023/12/23 06:18:09;;;;;;;1.58;1.00;;;;;;;;;;4937240;29;20050;-77
2023/12/23 06:20:35;;;;;;;1.80;0.90;;;;;;;;;;4938022;29;20421;-77
2023/12/23 06:23:01;;;;;;;1.67;0.90;;;;;;;;;;4926319;29;20044;-77
2023/12/23 06:25:27;;;;;;;1.23;0.85;;;;;;;;;;4903001;29;20048;-77
2023/12/23 06:27:53;;;;;;;2.92;1.00;;;;;;;;;;4907779;29;20083;-77
2023/12/23 06:30:19;;;;;;;2.63;1.30;;;;;;;;;;4937726;29;20122;-77
2023/12/23 06:32:45;;;;;;;2.65;1.00;;;;;;;;;;4941259;28;20052;-77
2023/12/23 06:35:11;;;;;;;1.30;0.90;;;;;;;;;;4920304;29;20035;-78
2023/12/23 06:37:37;;;;;;;1.70;1.15;;;;;;;;;;4934898;28;20032;-78
2023/12/23 06:40:03;;;;;;;1.85;1.00;;;;;;;;;;4920539;29;20055;-79
2023/12/23 06:42:30;;;;;;;1.75;0.98;;;;;;;;;;4911370;29;20035;-77
2023/12/23 06:44:56;;;;;;;1.15;1.00;;;;;;;;;;4889556;29;20048;-78
2023/12/23 06:47:22;;;;;;;1.85;1.00;;;;;;;;;;4890303;29;20051;-78
2023/12/23 06:49:48;;;;;;;2.00;1.20;;;;;;;;;;4936081;29;20039;-77
2023/12/23 06:52:14;;;;;;;2.10;1.17;;;;;;;;;;4919801;28;20573;-79
2023/12/23 06:54:40;;;;;;;2.78;0.95;;;;;;;;;;4953795;28;20206;-78
2023/12/23 06:57:06;;;;;;;7.00;1.60;;;;;;;;;;4952249;28;20138;-78
2023/12/23 06:59:32;;;;;;;4.55;1.20;;;;;;;;;;4936743;29;20043;-78
2023/12/23 07:01:58;;;;;;;3.75;1.40;;;;;;;;;;4903822;29;20436;-77
2023/12/23 07:04:24;;;;;;;2.83;1.15;;;;;;;;;;4917934;29;20050;-78
2023/12/23 07:06:50;;;;;;;5.40;1.70;;;;;;;;;;4934099;29;20094;-77
2023/12/23 07:09:17;;;;;;;5.60;1.15;;;;;;;;;;4931932;29;20539;-77
2023/12/23 07:11:43;;;;;;;2.67;0.90;;;;;;;;;;4937089;29;20043;-78
2023/12/23 07:14:09;;;;;;;4.10;1.08;;;;;;;;;;4929769;29;20086;-78
2023/12/23 07:16:35;;;;;;;1.98;1.10;;;;;;;;;;4952592;28;20039;-78
2023/12/23 07:19:01;;;;;;;1.75;1.40;;;;;;;;;;4953894;29;20057;-74
2023/12/23 07:21:27;;;;;;;2.42;1.20;;;;;;;;;;4952863;28;20106;-73
2023/12/23 07:23:53;;;;;;;1.55;1.30;;;;;;;;;;4928946;28;20117;-73
2023/12/23 07:26:20;;;;;;;1.88;1.23;;;;;;;;;;4934000;29;20042;-73
2023/12/23 07:28:46;;;;;;;2.05;1.30;;;;;;;;;;4931813;29;20050;-73
2023/12/23 07:31:12;;;;;;;3.15;1.20;;;;;;;;;;4921816;29;20551;-73
2023/12/23 07:33:38;;;;;;;1.15;1.08;;;;;;;;;;4910261;29;20593;-73
2023/12/23 07:36:04;;;;;;;1.25;1.15;;;;;;;;;;4923602;29;20408;-73
2023/12/23 07:38:30;;;;;;;1.00;0.90;;;;;;;;;;4937881;29;20373;-73
2023/12/23 07:40:56;;;;;;;1.70;0.77;;;;;;;;;;4957923;28;20520;-73
2023/12/23 07:43:22;;;;;;;0.70;0.70;;;;;;;;;;4940570;29;20035;-74
2023/12/23 07:45:48;;;;;;;0.82;0.82;;;;;;;;;;4924190;29;20047;-73
2023/12/23 07:48:14;;;;;;;0.95;0.95;;;;;;;;;;4921495;29;20139;-73
2023/12/23 07:50:40;;;;;;;1.15;1.02;;;;;;;;;;4927625;28;20039;-73
2023/12/23 07:53:06;;;;;;;1.05;0.88;;;;;;;;;;4944432;29;20130;-73
2023/12/23 07:55:34;;;;;;;0.80;0.80;;;;;;;;;;4926231;29;20055;-73
2023/12/23 07:58:00;;;;;;;1.02;0.90;;;;;;;;;;4918157;29;20122;-73
2023/12/23 08:00:26;;;;;;;1.00;1.00;;;;;;;;;;4933205;29;20044;-73
2023/12/23 08:02:52;;;;;;;0.93;0.93;;;;;;;;;;4926602;29;20052;-73
2023/12/23 08:05:18;;;;;;;1.00;0.90;;;;;;;;;;4925195;29;20055;-73
2023/12/23 08:07:45;;;;;;;1.65;0.85;;;;;;;;;;4935641;29;20079;-73
2023/12/23 08:10:11;;;;;;;1.15;0.80;;;;;;;;;;4931038;29;20078;-73
2023/12/23 08:12:37;;;;;;;1.65;1.02;;;;;;;;;;4937388;29;20506;-73
2023/12/23 08:15:03;;;;;;;0.90;0.90;;;;;;;;;;4931013;29;20106;-73
2023/12/23 08:17:29;;;;;;;1.20;0.90;;;;;;;;;;4928859;29;20130;-73
2023/12/23 08:19:55;;;;;;;2.33;1.02;;;;;;;;;;4915822;29;20092;-73
2023/12/23 08:22:21;;;;;;;1.65;1.25;;;;;;;;;;4930036;29;20051;-74
2023/12/23 08:24:48;;;;;;;1.15;1.00;;;;;;;;;;4922104;29;20083;-73
2023/12/23 08:27:14;;;;;;;1.17;0.80;;;;;;;;;;4924746;29;20036;-73
2023/12/23 08:29:40;;;;;;;0.90;0.90;;;;;;;;;;4920898;29;20043;-73
2023/12/23 08:32:06;;;;;;;0.90;0.90;;;;;;;;;;4950388;28;20059;-77
2023/12/23 08:34:32;;;;;;;1.30;1.20;;;;;;;;;;4936465;29;20047;-77
2023/12/23 08:36:58;;;;;;;1.70;1.10;;;;;;;;;;4927395;29;20111;-78
2023/12/23 08:39:24;;;;;;;0.93;0.82;;;;;;;;;;4907252;29;20043;-78
2023/12/23 08:41:50;;;;;;;1.55;1.00;;;;;;;;;;4894808;29;20392;-78
2023/12/23 08:44:17;;;;;;;0.98;0.98;;;;;;;;;;4925653;29;20389;-78
2023/12/23 08:46:43;;;;;;;0.80;0.80;;;;;;;;;;4914463;29;20452;-78
2023/12/23 08:49:09;;;;;;;1.15;0.80;;;;;;;;;;4920456;29;20046;-77
2023/12/23 08:51:38;;;;;;;0.88;0.88;;;;;;;;;;4929050;29;20102;-77
2023/12/23 08:54:05;;;;;;;1.13;1.00;;;;;;;;;;4929705;29;20051;-77
2023/12/23 08:56:31;;;;;;;3.50;1.10;;;;;;;;;;4923445;29;20049;-77
2023/12/23 08:58:57;;;;;;;1.27;0.95;;;;;;;;;;4877658;29;20092;-73
2023/12/23 09:01:23;;;;;;;1.00;1.00;;;;;;;;;;4933283;28;20050;-73
2023/12/23 09:03:49;;;;;;;1.60;1.08;;;;;;;;;;4905309;28;20457;-73
2023/12/23 09:06:17;;;;;;;1.35;1.00;;;;;;;;;;4931882;29;20114;-73
2023/12/23 09:08:43;;;;;;;1.02;1.02;;;;;;;;;;4919308;29;20047;-73
2023/12/23 09:11:09;;;;;;;1.23;1.15;;;;;;;;;;4920965;29;20519;-73
2023/12/23 09:13:36;;;;;;;1.20;1.10;;;;;;;;;;4932039;29;20134;-73
2023/12/23 09:16:04;;;;;;;1.00;0.95;;;;;;;;;;4919982;29;20399;-73
2023/12/23 09:18:31;;;;;;;0.80;0.80;;;;;;;;;;4927102;29;20497;-73
2023/12/23 09:20:57;;;;;;;1.30;1.00;;;;;;;;;;4919791;29;20043;-73
2023/12/23 09:23:23;;;;;;;1.33;1.20;;;;;;;;;;4910983;29;20122;-73
2023/12/23 09:25:50;;;;;;;3.03;1.48;;;;;;;;;;4919749;29;20109;-73
2023/12/23 09:28:17;;;;;;;0.80;0.80;;;;;;;;;;4930958;29;20051;-73
2023/12/23 09:30:43;;;;;;;1.17;1.08;;;;;;;;;;4933702;29;20058;-73
2023/12/23 09:33:10;;;;;;;0.80;0.80;;;;;;;;;;4920506;29;20584;-73
2023/12/23 09:35:36;;;;;;;0.90;0.90;;;;;;;;;;4925259;29;20103;-73
2023/12/23 09:38:02;;;;;;;1.95;1.25;;;;;;;;;;4934864;29;20505;-73
2023/12/23 09:40:28;;;;;;;1.42;1.20;;;;;;;;;;4905164;29;20047;-73
2023/12/23 09:42:54;;;;;;;1.15;1.05;;;;;;;;;;4910786;29;20035;-73
2023/12/23 09:45:21;;;;;;;1.40;1.30;;;;;;;;;;4920456;29;20094;-73
2023/12/23 09:47:47;;;;;;;1.55;1.45;;;;;;;;;;4930039;29;20562;-73
2023/12/23 09:50:15;;;;;;;1.55;1.45;;;;;;;;;;4935116;29;20044;-73
2023/12/23 09:52:41;;;;;;;1.75;1.40;;;;;;;;;;4943845;28;20087;-74
2023/12/23 09:55:10;;;;;;;1.73;1.60;;;;;;;;;;4934353;29;20130;-73
2023/12/23 09:57:36;;;;;;;1.40;1.30;;;;;;;;;;4933643;29;20067;-73
2023/12/23 10:00:03;;;;;;;1.75;1.63;;;;;;;;;;4917917;29;20051;-74
2023/12/23 10:02:29;;;;;;;1.85;1.55;;;;;;;;;;4909002;29;20053;-74
2023/12/23 10:04:55;;;;;;;1.60;1.50;;;;;;;;;;4922416;29;20409;-74
2023/12/23 10:07:21;;;;;;;1.60;1.50;;;;;;;;;;4926414;29;20036;-74
2023/12/23 10:09:51;;;;;;;2.00;1.85;;;;;;;;;;4924299;29;20040;-74
2023/12/23 10:12:17;;;;;;;2.00;1.80;;;;;;;;;;4901642;29;20174;-74
2023/12/23 10:14:44;;;;;;;2.13;1.80;;;;;;;;;;4909614;29;20127;-73
2023/12/23 10:17:10;;;;;;;2.15;2.00;;;;;;;;;;4901000;29;20429;-74
2023/12/23 10:19:37;;;;;;;1.75;1.65;;;;;;;;;;4905033;29;20090;-74
2023/12/23 10:22:03;;;;;;;4.28;1.98;;;;;;;;;;4925243;29;20130;-73
2023/12/23 10:24:29;;;;;;;5.55;2.38;;;;;;;;;;4926152;29;20085;-74
2023/12/23 10:26:56;;;;;;;4.63;2.10;;;;;;;;;;4918924;29;20094;-73
2023/12/23 10:29:23;;;;;;;9.82;2.30;;;;;;;;;;4920491;29;20051;-74
2023/12/23 10:31:52;;;;;;;8.57;2.47;;;;;;;;;;4917161;29;20040;-74
2023/12/23 10:34:21;;;;;;;15.48;3.35;;;;;;;;;;4904562;29;20115;-74
2023/12/23 10:36:47;;;;;;;9.13;2.40;;;;;;;;;;4916604;29;20040;-73
2023/12/23 10:39:17;;;;;;;13.20;2.40;;;;;;;;;;4918482;29;20481;-74
2023/12/23 10:42:10;;;;;;;12.50;2.67;;;;;;;;;;4918759;29;20500;-73
2023/12/23 10:44:37;;;;;;;10.25;2.80;;;;;;;;;;4899397;29;20059;-73
2023/12/23 10:47:06;;;;;;;13.43;2.35;;;;;;;;;;4905062;29;20039;-73
2023/12/23 10:49:35;;;;;;;8.20;2.80;;;;;;;;;;4926142;29;20048;-74
2023/12/23 10:52:01;;;;;;;7.80;2.20;;;;;;;;;;4920263;29;20040;-74
2023/12/23 10:54:27;;;;;;;6.90;2.60;;;;;;;;;;4932532;29;20040;-74
2023/12/23 10:56:55;;;;;;;6.97;2.33;;;;;;;;;;4919983;29;20099;-74
2023/12/23 10:59:21;;;;;;;4.88;1.63;;;;;;;;;;4917757;29;20484;-73
2023/12/23 11:01:47;;;;;;;10.10;2.40;;;;;;;;;;4921947;29;20044;-73
2023/12/23 11:04:13;;;;;;;11.15;2.47;;;;;;;;;;4903859;29;20357;-73
2023/12/23 11:06:44;;;;;;;7.88;1.60;;;;;;;;;;4913104;29;20050;-73
2023/12/23 11:09:11;;;;;;;11.73;2.28;;;;;;;;;;4922850;29;21543;-73
2023/12/23 11:11:38;;;;;;;7.25;1.60;;;;;;;;;;4940659;29;20036;-73
2023/12/23 11:14:06;;;;;;;8.80;1.73;;;;;;;;;;4924301;29;20070;-73
2023/12/23 11:16:32;;;;;;;7.35;1.40;;;;;;;;;;4933000;29;20067;-73
2023/12/23 11:18:58;;;;;;;4.85;1.35;;;;;;;;;;4909976;29;20036;-73
2023/12/23 11:21:24;;;;;;;7.20;1.42;;;;;;;;;;4926836;29;20378;-73
2023/12/23 11:23:51;;;;;;;9.52;1.58;;;;;;;;;;4926943;29;20054;-78
2023/12/23 11:26:39;;;;;;;5.07;1.70;;;;;;;;;;4915893;29;20409;-79
2023/12/23 11:29:06;;;;;;;7.03;1.70;;;;;;;;;;4933952;29;20118;-78
2023/12/23 11:31:32;;;;;;;6.70;1.50;;;;;;;;;;4928030;29;20436;-78
2023/12/23 11:33:59;;;;;;;6.18;1.80;;;;;;;;;;4925881;29;20039;-78
2023/12/23 11:36:25;;;;;;;2.33;1.33;;;;;;;;;;4895248;29;20118;-79
2023/12/23 11:38:52;;;;;;;8.13;1.70;;;;;;;;;;4925934;29;20043;-79
2023/12/23 11:41:21;;;;;;;12.73;2.33;;;;;;;;;;4938506;29;20400;-78
2023/12/23 11:43:49;;;;;;;11.55;2.00;;;;;;;;;;4928988;29;20048;-79
2023/12/23 11:46:15;;;;;;;6.70;1.60;;;;;;;;;;4925435;29;20050;-79
2023/12/23 11:48:41;;;;;;;6.72;1.80;;;;;;;;;;4915071;29;20377;-79
2023/12/23 11:51:07;;;;;;;14.27;2.65;;;;;;;;;;4921758;29;20035;-79
2023/12/23 11:53:34;;;;;;;5.40;1.70;;;;;;;;;;4930549;29;20377;-79
2023/12/23 11:56:00;;;;;;;5.25;1.73;;;;;;;;;;4928807;29;20130;-79
2023/12/23 11:58:27;;;;;;;6.88;1.80;;;;;;;;;;4933463;29;20404;-79
2023/12/23 12:00:56;;;;;;;4.63;2.25;;;;;;;;;;4923512;29;20094;-78
2023/12/23 12:03:25;;;;;;;5.50;1.60;;;;;;;;;;4921522;29;20043;-78
2023/12/23 12:05:58;;;;;;;1.98;1.30;;;;;;;;;;4906743;29;20575;-79
2023/12/23 12:08:24;;;;;;;;;;;8.20;99.90;;;;;;4892838;29;20043;-79
2023/12/23 12:10:50;;;;;;;3.17;1.33;;;;;;;;;;4930791;29;20068;-78
2023/12/23 12:13:17;;;;;;;4.65;1.40;;;;;;;;;;4930890;29;20147;-79
2023/12/23 12:15:43;;;;;;;5.90;1.27;;;;;;;;;;4920873;29;20110;-79
2023/12/23 12:18:11;;;;;;;3.88;1.60;;;;;;;;;;4933836;29;20043;-79
2023/12/23 12:20:37;;;;;;;9.80;2.30;;;;;;;;;;4921654;29;20099;-78
2023/12/23 12:23:04;;;;;;;11.15;1.88;;;;;;;;;;4941419;29;20050;-78
2023/12/23 12:25:30;;;;;;;15.85;2.30;;;;;;;;;;4939591;29;20435;-79
2023/12/23 12:27:56;;;;;;;22.92;3.13;;;;;;;;;;4938177;29;20440;-79
2023/12/23 12:30:22;;;;;;;15.00;2.92;;;;;;;;;;4909072;29;20047;-78
2023/12/23 12:32:49;;;;;;;23.83;3.15;;;;;;;;;;4930941;29;20394;-78
2023/12/23 12:35:16;;;;;;;18.30;2.97;;;;;;;;;;4933514;29;20421;-79
2023/12/23 12:37:43;;;;;;;29.45;3.53;;;;;;;;;;4920823;29;20047;-79
2023/12/23 12:40:12;;;;;;;21.08;3.10;;;;;;;;;;4929718;29;20043;-79
2023/12/23 12:42:44;;;;;;;26.33;3.92;;;;;;;;;;4937076;29;20046;-78
2023/12/23 12:45:11;;;;;;;20.40;3.13;;;;;;;;;;4930074;29;20098;-79
2023/12/23 12:47:37;;;;;;;34.15;4.00;;;;;;;;;;4933678;29;20083;-79
2023/12/23 12:50:05;;;;;;;30.55;3.45;;;;;;;;;;4914513;29;20130;-73
2023/12/23 12:52:32;;;;;;;26.23;3.55;;;;;;;;;;4926541;29;20043;-73
2023/12/23 12:54:58;;;;;;;28.88;3.28;;;;;;;;;;4926465;29;20048;-73
2023/12/23 12:57:26;;;;;;;34.92;4.88;;;;;;;;;;4922894;29;20094;-73
2023/12/23 12:59:52;;;;;;;26.50;3.58;;;;;;;;;;4930982;29;20039;-73
2023/12/23 13:02:19;;;;;;;33.50;4.38;;;;;;;;;;4930101;29;20079;-73
2023/12/23 13:04:45;;;;;;;27.25;3.38;;;;;;;;;;4910891;29;20043;-73
2023/12/23 13:07:11;;;;;;;28.65;3.92;;;;;;;;;;4932842;29;20082;-73
2023/12/23 13:09:37;;;;;;;24.30;4.13;;;;;;;;;;4913868;29;20495;-73
2023/12/23 13:12:04;;;;;;;22.35;3.75;;;;;;;;;;4930608;29;20110;-73
2023/12/23 13:14:30;;;;;;;25.60;2.72;;;;;;;;;;4922166;29;20056;-73
2023/12/23 13:16:56;;;;;;;27.65;4.75;;;;;;;;;;4920909;29;20050;-73
2023/12/23 13:19:22;;;;;;;22.35;3.67;;;;;;;;;;4921851;29;20053;-73
2023/12/23 13:21:49;;;;;;;28.02;4.65;;;;;;;;;;4923558;29;20043;-73
2023/12/23 13:24:15;;;;;;;25.73;3.30;;;;;;;;;;4919619;29;20055;-73
2023/12/23 13:26:41;;;;;;;24.83;4.25;;;;;;;;;;4912315;29;20588;-73
2023/12/23 13:29:08;;;;;;;23.83;3.72;;;;;;;;;;4935909;29;20047;-74
2023/12/23 13:31:36;;;;;;;26.38;3.20;;;;;;;;;;4914510;29;20050;-73
2023/12/23 13:34:03;;;;;;;28.23;3.90;;;;;;;;;;4936421;29;20107;-73
2023/12/23 13:36:29;;;;;;;20.65;3.45;;;;;;;;;;4927240;29;20050;-73
2023/12/23 13:38:56;;;;;;;19.95;2.85;;;;;;;;;;4921384;29;20445;-73
2023/12/23 13:41:28;;;;;;;25.00;4.05;;;;;;;;;;4933975;29;20052;-73
2023/12/23 13:43:54;;;;;;;28.52;3.78;;;;;;;;;;4920890;29;20039;-73
2023/12/23 13:46:20;;;;;;;27.55;4.05;;;;;;;;;;4933936;29;20027;-73
2023/12/23 13:48:47;;;;;;;28.95;3.50;;;;;;;;;;4921682;29;20044;-74
2023/12/23 13:51:13;;;;;;;21.10;3.63;;;;;;;;;;4930380;29;20061;-73
2023/12/23 13:53:39;;;;;;;20.42;3.53;;;;;;;;;;4927932;29;20391;-73
2023/12/23 13:56:08;;;;;;;17.30;3.17;;;;;;;;;;4911573;29;20054;-73
2023/12/23 13:58:35;;;;;;;22.08;3.67;;;;;;;;;;4936505;29;20492;-75
2023/12/23 14:01:01;;;;;;;19.15;3.33;;;;;;;;;;4934968;29;20054;-74
2023/12/23 14:03:28;;;;;;;21.98;3.45;;;;;;;;;;4931733;29;20050;-73
2023/12/23 14:05:54;;;;;;;25.95;4.22;;;;;;;;;;4913185;28;20110;-73
2023/12/23 14:08:21;;;;;;;22.35;4.10;;;;;;;;;;4938112;29;20043;-73
2023/12/23 14:10:47;;;;;;;24.20;3.90;;;;;;;;;;4912625;29;20051;-73
2023/12/23 14:13:13;;;;;;;19.00;3.50;;;;;;;;;;4916509;29;20059;-73
2023/12/23 14:15:39;;;;;;;23.38;3.47;;;;;;;;;;4933898;29;20180;-73
2023/12/23 14:18:06;;;;;;;21.63;3.55;;;;;;;;;;4911186;29;20087;-74
2023/12/23 14:20:32;;;;;;;23.33;3.75;;;;;;;;;;4921676;29;20036;-73
2023/12/23 14:22:58;;;;;;;18.50;2.90;;;;;;;;;;4934401;29;20126;-73
2023/12/23 14:25:24;;;;;;;24.88;3.70;;;;;;;;;;4922028;29;20055;-74
2023/12/23 14:27:51;;;;;;;21.65;3.22;;;;;;;;;;4929676;29;20061;-74
2023/12/23 14:30:17;;;;;;;21.95;3.25;;;;;;;;;;4928596;29;20054;-77
2023/12/23 14:32:43;;;;;;;18.23;3.15;;;;;;;;;;4931956;29;20043;-78
2023/12/23 14:35:10;;;;;;;20.23;3.08;;;;;;;;;;4922891;29;20040;-78